createdAt,value
2022-10-28T00:01:16.034Z,9.67
2022-10-28T00:03:43.757Z,15.80
2022-10-28T00:06:11.940Z,8.87
2022-10-28T00:08:38.481Z,7.53
2022-10-28T00:11:11.838Z,8.47
2022-10-28T00:13:38.680Z,10.93
2022-10-28T00:16:09.177Z,9.77
2022-10-28T00:18:35.556Z,12.03
2022-10-28T00:21:02.994Z,7.03
2022-10-28T00:23:29.367Z,9.97
2022-10-28T00:25:55.756Z,13.47
2022-10-28T00:28:22.195Z,11.40
2022-10-28T00:30:48.525Z,9.70
2022-10-28T00:33:14.877Z,6.90
2022-10-28T00:35:41.265Z,7.67
2022-10-28T00:38:07.646Z,8.37
2022-10-28T00:40:34.754Z,7.43
2022-10-28T00:43:01.108Z,8.80
2022-10-28T00:45:27.792Z,9.10
2022-10-28T00:47:56.416Z,10.90
2022-10-28T00:50:46.572Z,8.63
2022-10-28T00:53:15.650Z,12.30
2022-10-28T00:55:42.943Z,10.50
2022-10-28T00:58:09.951Z,10.67
2022-10-28T01:00:36.298Z,9.93
2022-10-28T01:03:02.735Z,9.00
2022-10-28T01:05:30.432Z,11.33
2022-10-28T01:08:01.586Z,8.30
2022-10-28T01:10:38.333Z,10.30
2022-10-28T01:13:12.295Z,9.23
2022-10-28T01:15:41.652Z,9.37
2022-10-28T01:18:31.257Z,9.43
2022-10-28T01:21:00.419Z,13.17
2022-10-28T01:23:31.390Z,16.47
2022-10-28T01:26:11.836Z,10.80
2022-10-28T01:28:56.628Z,12.77
2022-10-28T01:31:32.650Z,9.80
2022-10-28T01:34:01.868Z,9.63
2022-10-28T01:36:37.267Z,7.43
2022-10-28T01:39:14.290Z,11.60
2022-10-28T01:41:48.998Z,8.50
2022-10-28T01:44:24.225Z,11.77
2022-10-28T01:46:57.150Z,13.67
2022-10-28T01:49:25.659Z,9.30
2022-10-28T01:51:54.354Z,10.10
2022-10-28T01:54:22.911Z,13.40
2022-10-28T01:56:50.307Z,8.70
2022-10-28T01:59:19.991Z,10.43
2022-10-28T02:01:46.463Z,10.13
2022-10-28T02:04:12.997Z,7.63
2022-10-28T02:06:40.958Z,10.20
2022-10-28T02:09:13.471Z,10.07
2022-10-28T02:11:39.774Z,11.47
2022-10-28T02:14:25.046Z,12.60
2022-10-28T02:16:58.548Z,30.43
2022-10-28T02:19:24.897Z,33.87
2022-10-28T02:21:59.777Z,14.20
2022-10-28T02:24:44.919Z,9.70
2022-10-28T02:27:16.487Z,11.60
2022-10-28T02:29:49.901Z,9.77
2022-10-28T02:32:19.780Z,13.50
2022-10-28T02:34:47.963Z,13.03
2022-10-28T02:37:20.776Z,7.23
2022-10-28T02:39:49.135Z,11.33
2022-10-28T02:42:19.418Z,10.93
2022-10-28T02:44:49.060Z,7.67
2022-10-28T02:47:19.383Z,6.67
2022-10-28T02:49:47.919Z,6.33
2022-10-28T02:52:15.710Z,10.60
2022-10-28T02:54:45.797Z,8.73
2022-10-28T02:57:16.077Z,23.77
2022-10-28T02:59:42.431Z,17.57
2022-10-28T03:02:08.913Z,10.20
2022-10-28T03:04:35.366Z,9.30
2022-10-28T03:07:01.684Z,13.73
2022-10-28T03:09:28.001Z,11.10
2022-10-28T03:11:54.343Z,10.53
2022-10-28T03:14:20.695Z,11.00
2022-10-28T03:16:47.011Z,12.80
2022-10-28T03:19:13.389Z,12.67
2022-10-28T03:21:39.720Z,19.10
2022-10-28T03:24:06.251Z,12.57
2022-10-28T03:26:32.647Z,9.93
2022-10-28T03:28:58.995Z,9.77
2022-10-28T03:31:25.306Z,10.93
2022-10-28T03:33:51.647Z,8.63
2022-10-28T03:36:18.049Z,11.20
2022-10-28T03:38:44.367Z,8.47
2022-10-28T03:41:10.690Z,8.13
2022-10-28T03:43:37.035Z,11.07
2022-10-28T03:46:03.375Z,9.03
2022-10-28T03:48:29.822Z,9.20
2022-10-28T03:50:56.427Z,9.23
2022-10-28T03:53:26.299Z,14.30
2022-10-28T03:55:54.762Z,8.83
2022-10-28T03:58:21.774Z,12.90
2022-10-28T04:00:49.536Z,12.73
2022-10-28T04:03:16.794Z,13.03
2022-10-28T04:05:43.394Z,8.57
2022-10-28T04:08:09.956Z,16.27
2022-10-28T04:10:36.404Z,19.00
2022-10-28T04:13:03.887Z,9.70
2022-10-28T04:15:30.516Z,12.23
2022-10-28T04:17:56.982Z,10.23
2022-10-28T04:20:23.931Z,11.03
2022-10-28T04:22:57.087Z,12.30
2022-10-28T04:25:24.958Z,11.20
2022-10-28T04:27:51.538Z,12.27
2022-10-28T04:30:18.310Z,11.97
2022-10-28T04:32:44.987Z,13.17
2022-10-28T04:35:12.030Z,7.00
2022-10-28T04:37:39.153Z,13.27
2022-10-28T04:40:05.914Z,7.03
2022-10-28T04:42:32.286Z,7.90
2022-10-28T04:44:58.619Z,10.83
2022-10-28T04:47:24.969Z,21.07
2022-10-28T04:49:51.335Z,16.53
2022-10-28T04:52:17.709Z,12.17
2022-10-28T04:54:44.210Z,16.40
2022-10-28T04:57:10.539Z,10.87
2022-10-28T04:59:37.468Z,12.10
2022-10-28T05:02:03.937Z,12.30
2022-10-28T05:04:30.356Z,9.27
2022-10-28T05:06:56.684Z,8.43
2022-10-28T05:09:23.007Z,11.80
2022-10-28T05:11:49.323Z,12.03
2022-10-28T05:14:15.743Z,18.63
2022-10-28T05:16:43.689Z,10.73
2022-10-28T05:19:10.002Z,13.87
2022-10-28T05:21:36.361Z,15.27
2022-10-28T05:24:02.725Z,13.07
2022-10-28T05:26:29.075Z,12.47
2022-10-28T05:28:55.416Z,14.10
2022-10-28T05:31:21.810Z,12.23
2022-10-28T05:33:48.155Z,14.43
2022-10-28T05:36:14.521Z,10.93
2022-10-28T05:38:42.547Z,10.17
2022-10-28T05:41:08.878Z,15.27
2022-10-28T05:43:35.238Z,21.30
2022-10-28T05:46:02.912Z,57.00
2022-10-28T05:48:29.238Z,17.07
2022-10-28T05:50:55.554Z,13.97
2022-10-28T05:53:21.898Z,9.37
2022-10-28T05:55:48.246Z,14.63
2022-10-28T05:58:14.636Z,13.30
2022-10-28T06:00:40.955Z,14.07
2022-10-28T06:03:10.799Z,12.67
2022-10-28T06:05:37.818Z,14.90
2022-10-28T06:08:04.718Z,12.50
2022-10-28T06:10:31.238Z,18.27
2022-10-28T06:12:56.116Z,16.73
2022-10-28T06:15:22.757Z,14.10
2022-10-28T06:17:49.250Z,15.23
2022-10-28T06:20:15.946Z,15.47
2022-10-28T06:22:49.422Z,46.83
2022-10-28T06:25:16.150Z,24.93
2022-10-28T06:27:42.462Z,14.53
2022-10-28T06:30:09.027Z,16.07
2022-10-28T06:32:35.372Z,11.93
2022-10-28T06:35:01.800Z,15.17
2022-10-28T06:37:28.198Z,16.63
2022-10-28T06:39:54.862Z,16.87
2022-10-28T06:42:21.324Z,15.37
2022-10-28T06:44:49.295Z,14.00
2022-10-28T06:47:17.145Z,11.60
2022-10-28T06:49:43.497Z,15.50
2022-10-28T06:52:09.888Z,12.60
2022-10-28T06:54:36.240Z,14.97
2022-10-28T06:57:02.584Z,11.83
2022-10-28T06:59:29.342Z,11.93
2022-10-28T07:01:56.206Z,13.27
2022-10-28T07:04:22.984Z,13.47
2022-10-28T07:06:51.945Z,20.47
2022-10-28T07:09:18.707Z,23.77
2022-10-28T07:11:52.304Z,21.70
2022-10-28T07:14:21.622Z,17.27
2022-10-28T07:16:47.988Z,20.40
2022-10-28T07:19:16.195Z,14.93
2022-10-28T07:21:44.559Z,12.47
2022-10-28T07:24:10.901Z,16.03
2022-10-28T07:26:37.286Z,15.47
2022-10-28T07:29:03.604Z,13.60
2022-10-28T07:31:31.476Z,15.43
2022-10-28T07:33:57.838Z,15.70
2022-10-28T07:36:24.318Z,12.20
2022-10-28T07:38:51.827Z,15.63
2022-10-28T07:41:19.150Z,18.20
2022-10-28T07:43:45.564Z,15.17
2022-10-28T07:46:11.907Z,15.90
2022-10-28T07:48:38.327Z,14.37
2022-10-28T07:51:05.419Z,15.00
2022-10-28T07:53:32.053Z,14.37
2022-10-28T07:55:59.597Z,18.43
2022-10-28T07:58:26.103Z,17.13
2022-10-28T08:00:52.884Z,18.03
2022-10-28T08:03:19.370Z,18.63
2022-10-28T08:05:45.809Z,16.43
2022-10-28T08:08:12.465Z,12.50
2022-10-28T08:10:38.857Z,21.63
2022-10-28T08:13:07.080Z,12.37
2022-10-28T08:15:33.484Z,14.57
2022-10-28T08:17:59.891Z,17.03
2022-10-28T08:20:26.280Z,10.90
2022-10-28T08:22:53.043Z,15.00
2022-10-28T08:25:19.680Z,13.80
2022-10-28T08:27:46.003Z,12.73
2022-10-28T08:30:12.479Z,14.43
2022-10-28T08:32:38.822Z,17.50
2022-10-28T08:35:05.405Z,17.00
2022-10-28T08:37:31.949Z,18.20
2022-10-28T08:39:58.355Z,10.50
2022-10-28T08:42:27.885Z,12.87
2022-10-28T08:44:54.279Z,8.90
2022-10-28T08:47:23.763Z,15.57
2022-10-28T08:49:54.096Z,13.67
2022-10-28T08:52:25.536Z,15.97
2022-10-28T08:55:02.080Z,16.53
2022-10-28T08:57:34.607Z,13.37
2022-10-28T09:00:03.242Z,12.53
2022-10-28T09:02:33.077Z,14.37
2022-10-28T09:05:02.524Z,12.53
2022-10-28T09:07:29.035Z,12.20
2022-10-28T09:09:55.890Z,11.50
2022-10-28T09:12:34.820Z,12.27
2022-10-28T09:15:07.281Z,9.95
2022-10-28T09:17:37.081Z,11.23
2022-10-28T09:20:11.365Z,11.90
2022-10-28T09:22:43.232Z,19.00
2022-10-28T09:25:12.607Z,16.00
2022-10-28T09:27:39.050Z,14.52
2022-10-28T09:30:05.578Z,9.95
2022-10-28T09:32:52.565Z,10.73
2022-10-28T09:35:21.762Z,29.40
2022-10-28T09:37:50.965Z,16.85
2022-10-28T09:40:22.156Z,13.25
2022-10-28T09:43:13.976Z,11.43
2022-10-28T09:45:43.187Z,16.52
2022-10-28T09:48:14.563Z,13.73
2022-10-28T09:50:41.300Z,9.35
2022-10-28T09:53:26.445Z,12.63
2022-10-28T09:55:52.864Z,15.27
2022-10-28T09:58:19.243Z,13.05
2022-10-28T10:00:45.653Z,10.98
2022-10-28T10:03:12.032Z,10.45
2022-10-28T10:05:40.564Z,12.35
2022-10-28T10:08:07.045Z,16.08
2022-10-28T10:10:52.171Z,14.35
2022-10-28T10:13:21.228Z,14.77
2022-10-28T10:16:07.949Z,9.25
2022-10-28T10:18:34.344Z,10.60
2022-10-28T10:21:01.038Z,11.30
2022-10-28T10:23:29.087Z,12.85
2022-10-28T10:25:58.514Z,11.60
2022-10-28T10:28:25.751Z,14.63
2022-10-28T10:30:56.437Z,35.03
2022-10-28T10:33:36.324Z,15.48
2022-10-28T10:36:11.498Z,12.13
2022-10-28T10:38:39.178Z,15.50
2022-10-28T10:41:05.545Z,10.55
2022-10-28T10:43:32.941Z,16.85
2022-10-28T10:46:00.835Z,17.08
2022-10-28T10:48:28.414Z,16.80
2022-10-28T10:50:55.237Z,13.07
2022-10-28T10:53:25.923Z,17.23
2022-10-28T10:55:54.476Z,15.75
2022-10-28T10:58:22.209Z,10.82
2022-10-28T11:00:52.705Z,16.73
2022-10-28T11:03:27.751Z,19.40
2022-10-28T11:06:22.487Z,13.32
2022-10-28T11:08:45.273Z,11.45
2022-10-28T11:11:13.564Z,10.20
2022-10-28T11:13:43.537Z,12.70
2022-10-28T11:16:20.610Z,14.68
2022-10-28T11:18:48.121Z,21.67
2022-10-28T11:21:21.558Z,16.00
2022-10-28T11:23:57.372Z,9.95
2022-10-28T11:26:24.712Z,16.27
2022-10-28T11:28:55.449Z,9.80
2022-10-28T11:31:21.993Z,16.80
2022-10-28T11:33:59.153Z,19.67
2022-10-28T11:36:25.465Z,13.70
2022-10-28T11:38:54.859Z,15.20
2022-10-28T11:41:30.413Z,16.85
2022-10-28T11:44:03.809Z,17.40
2022-10-28T11:46:31.465Z,12.93
2022-10-28T11:49:16.602Z,25.25
2022-10-28T11:52:15.528Z,18.27
2022-10-28T11:54:43.176Z,18.08
2022-10-28T11:57:11.635Z,15.48
2022-10-28T11:59:53.392Z,19.23
2022-10-28T12:02:38.773Z,15.65
2022-10-28T12:05:08.272Z,15.70
2022-10-28T12:07:34.568Z,18.77
2022-10-28T12:10:00.876Z,19.13
2022-10-28T12:12:39.682Z,18.65
2022-10-28T12:15:16.004Z,11.10
2022-10-28T12:17:46.247Z,16.70
2022-10-28T12:20:31.580Z,19.02
2022-10-28T12:23:00.137Z,21.83
2022-10-28T12:25:27.855Z,16.77
2022-10-28T12:27:58.637Z,15.63
2022-10-28T12:30:27.301Z,17.80
2022-10-28T12:32:56.758Z,21.55
2022-10-28T12:35:45.782Z,17.73
2022-10-28T12:38:18.518Z,18.25
2022-10-28T12:40:49.282Z,13.20
2022-10-28T12:43:36.895Z,12.07
2022-10-28T12:46:03.402Z,13.50
2022-10-28T12:48:32.710Z,19.17
2022-10-28T12:51:19.321Z,15.93
2022-10-28T12:54:00.404Z,10.52
2022-10-28T12:56:31.550Z,16.40
2022-10-28T12:59:01.731Z,14.02
2022-10-28T13:01:28.937Z,13.90
2022-10-28T13:03:55.477Z,18.52
2022-10-28T13:06:29.158Z,13.30
2022-10-28T13:09:05.577Z,17.15
2022-10-28T13:11:40.303Z,20.95
2022-10-28T13:14:19.390Z,11.73
2022-10-28T13:17:11.230Z,13.40
2022-10-28T13:19:43.690Z,18.50
2022-10-28T13:22:33.205Z,14.23
2022-10-28T13:25:05.639Z,14.57
2022-10-28T13:30:02.918Z,12.20
2022-10-28T13:32:34.049Z,12.57
2022-10-28T13:35:14.723Z,14.23
2022-10-28T13:37:41.610Z,12.52
2022-10-28T13:40:20.312Z,12.02
2022-10-28T13:42:47.775Z,23.08
2022-10-28T13:45:32.991Z,14.65
2022-10-28T13:48:18.006Z,16.55
2022-10-28T13:50:44.341Z,13.25
2022-10-28T13:53:29.101Z,15.88
2022-10-28T13:55:58.868Z,15.25
2022-10-28T13:58:26.231Z,17.73
2022-10-28T14:00:53.719Z,17.40
2022-10-28T14:03:24.843Z,15.93
2022-10-28T14:05:52.776Z,17.92
2022-10-28T14:08:19.182Z,18.92
2022-10-28T14:11:00.332Z,12.13
2022-10-28T14:13:27.486Z,14.77
2022-10-28T14:16:14.448Z,16.83
2022-10-28T14:18:44.054Z,21.88
2022-10-28T14:21:11.607Z,12.20
2022-10-28T14:23:44.096Z,14.82
2022-10-28T14:26:10.543Z,15.93
2022-10-28T14:28:36.850Z,13.65
2022-10-28T14:34:00.465Z,16.52
2022-10-28T14:36:47.276Z,21.17
2022-10-28T14:39:20.421Z,19.23
2022-10-28T14:41:52.982Z,21.05
2022-10-28T14:44:38.634Z,29.67
2022-10-28T14:47:23.361Z,18.08
2022-10-28T14:49:59.048Z,9.88
2022-10-28T14:52:25.993Z,20.75
2022-10-28T14:54:55.479Z,15.77
2022-10-28T14:57:29.455Z,20.53
2022-10-28T15:00:02.461Z,16.30
2022-10-28T15:02:29.915Z,13.70
2022-10-28T15:05:14.801Z,16.73
2022-10-28T15:07:41.499Z,20.27
2022-10-28T15:10:15.480Z,25.00
2022-10-28T15:12:43.507Z,25.43
2022-10-28T15:24:24.792Z,14.67
2022-10-28T15:26:55.535Z,24.93
2022-10-28T15:32:34.799Z,19.73
2022-10-28T15:52:30.325Z,23.07
2022-10-28T15:54:58.074Z,20.17
2022-10-28T15:57:26.211Z,15.57
2022-10-28T16:00:18.363Z,21.10
2022-10-28T16:02:50.162Z,21.47
2022-10-28T16:05:31.701Z,15.67
2022-10-28T16:07:59.074Z,13.77
2022-10-28T16:10:25.553Z,18.63
2022-10-28T16:12:51.889Z,22.37
2022-10-28T16:15:18.293Z,51.33
2022-10-28T16:17:44.704Z,50.47
2022-10-28T16:20:17.056Z,25.73
2022-10-28T16:22:45.461Z,23.13
2022-10-28T16:25:16.241Z,19.93
2022-10-28T16:27:42.773Z,25.37
2022-10-28T16:30:09.560Z,25.93
2022-10-28T16:32:38.905Z,17.10
2022-10-28T16:35:13.928Z,19.83
2022-10-28T16:37:44.496Z,15.33
2022-10-28T16:40:37.607Z,19.43
2022-10-28T16:43:01.549Z,27.10
2022-10-28T16:45:27.971Z,23.70
2022-10-28T16:47:54.616Z,19.03
2022-10-28T16:50:21.381Z,26.77
2022-10-28T16:52:47.905Z,25.37
2022-10-28T16:55:15.972Z,25.87
2022-10-28T16:57:42.399Z,22.80
2022-10-28T17:00:09.871Z,24.33
2022-10-28T17:02:36.502Z,21.97
2022-10-28T17:05:07.431Z,24.57
2022-10-28T17:07:33.783Z,30.63
2022-10-28T17:10:00.124Z,20.93
2022-10-28T17:12:27.156Z,22.77
2022-10-28T17:14:53.556Z,27.30
2022-10-28T17:17:20.035Z,29.60
2022-10-28T17:19:46.853Z,24.47
2022-10-28T17:22:13.417Z,23.67
2022-10-28T17:24:39.760Z,20.90
2022-10-28T17:27:06.373Z,22.40
2022-10-28T17:29:32.698Z,25.60
2022-10-28T17:31:59.139Z,19.37
2022-10-28T17:34:25.641Z,22.83
2022-10-28T17:36:51.992Z,21.97
2022-10-28T17:39:23.269Z,21.23
2022-10-28T17:41:52.173Z,26.60
2022-10-28T17:44:18.536Z,15.83
2022-10-28T17:46:44.857Z,31.07
2022-10-28T17:49:11.400Z,18.00
2022-10-28T17:51:38.127Z,17.53
2022-10-28T17:54:07.237Z,19.93
2022-10-28T17:56:34.256Z,25.17
2022-10-28T17:59:03.670Z,17.70
2022-10-28T18:01:30.812Z,16.30
2022-10-28T18:03:57.261Z,16.70
2022-10-28T18:06:24.027Z,18.80
2022-10-28T18:11:37.729Z,21.47
2022-10-28T18:14:04.319Z,25.40
2022-10-28T18:16:30.645Z,13.80
2022-10-28T18:18:57.051Z,20.47
2022-10-28T18:21:24.403Z,16.83
2022-10-28T18:23:51.769Z,9.23
2022-10-28T18:26:18.192Z,22.23
2022-10-28T18:28:45.101Z,21.23
2022-10-28T18:31:12.769Z,19.40
2022-10-28T18:33:39.191Z,26.07
2022-10-28T18:36:06.958Z,20.47
2022-10-28T18:38:33.717Z,23.53
2022-10-28T18:41:00.060Z,15.30
2022-10-28T18:43:26.696Z,15.77
2022-10-28T18:45:53.149Z,25.57
2022-10-28T18:48:19.586Z,26.10
2022-10-28T18:50:58.493Z,17.60
2022-10-28T18:53:25.244Z,23.33
2022-10-28T18:55:52.042Z,24.57
2022-10-28T18:58:18.413Z,19.37
2022-10-28T19:00:44.893Z,21.03
2022-10-28T19:03:23.530Z,17.57
2022-10-28T19:05:49.844Z,16.57
2022-10-28T19:08:16.196Z,21.87
2022-10-28T19:10:42.598Z,18.17
2022-10-28T19:13:08.946Z,22.70
2022-10-28T19:15:40.120Z,23.17
2022-10-28T19:18:06.516Z,20.90
2022-10-28T19:20:32.938Z,13.27
2022-10-28T19:22:59.596Z,24.97
2022-10-28T19:25:26.131Z,19.13
2022-10-28T19:27:52.453Z,22.80
2022-10-28T19:30:18.783Z,22.43
2022-10-28T19:32:45.130Z,31.13
2022-10-28T19:35:11.490Z,21.47
2022-10-28T19:37:37.866Z,21.10
2022-10-28T19:40:04.334Z,19.70
2022-10-28T19:42:30.681Z,19.33
2022-10-28T19:44:57.004Z,26.07
2022-10-28T19:47:23.405Z,25.70
2022-10-28T19:49:49.748Z,20.67
2022-10-28T19:52:16.244Z,18.93
2022-10-28T19:54:42.569Z,19.00
2022-10-28T19:57:08.958Z,13.50
2022-10-28T19:59:35.414Z,19.20
2022-10-28T20:02:01.902Z,23.50
2022-10-28T20:04:28.333Z,24.10
2022-10-28T20:06:54.730Z,26.80
2022-10-28T20:09:25.078Z,22.23
2022-10-28T20:11:54.300Z,22.77
2022-10-28T20:14:20.688Z,21.17
2022-10-28T20:16:48.835Z,21.53
2022-10-28T20:19:15.260Z,21.97
2022-10-28T20:21:41.584Z,21.60
2022-10-28T20:24:08.181Z,24.23
2022-10-28T20:26:35.493Z,27.60
2022-10-28T20:29:03.018Z,21.07
2022-10-28T20:31:30.574Z,21.03
2022-10-28T20:33:58.752Z,18.87
2022-10-28T20:36:25.148Z,23.50
2022-10-28T20:38:59.533Z,19.57
2022-10-28T20:41:26.698Z,25.33
2022-10-28T20:43:53.460Z,23.93
2022-10-28T20:46:20.446Z,25.90
2022-10-28T20:48:47.322Z,21.67
2022-10-28T20:51:13.816Z,23.00
2022-10-28T20:53:40.226Z,22.03
2022-10-28T20:56:06.992Z,22.73
2022-10-28T20:58:34.605Z,18.97
2022-10-28T21:01:02.451Z,24.53
2022-10-28T21:03:28.810Z,19.67
2022-10-28T21:05:55.146Z,24.10
2022-10-28T21:08:21.468Z,28.47
2022-10-28T21:10:47.817Z,25.10
2022-10-28T21:13:14.368Z,19.87
2022-10-28T21:15:41.098Z,23.03
2022-10-28T21:18:08.044Z,26.60
2022-10-28T21:20:35.245Z,17.77
2022-10-28T21:23:01.607Z,18.77
2022-10-28T21:25:28.412Z,21.07
2022-10-28T21:27:58.039Z,26.43
2022-10-28T21:30:24.691Z,23.73
2022-10-28T21:32:51.205Z,17.07
2022-10-28T21:35:17.642Z,27.63
2022-10-28T21:37:43.984Z,24.27
2022-10-28T21:40:10.859Z,22.27
2022-10-28T21:42:37.260Z,25.67
2022-10-28T21:45:03.829Z,39.07
2022-10-28T21:47:30.176Z,28.07
2022-10-28T21:49:56.524Z,24.33
2022-10-28T21:52:22.886Z,26.83
2022-10-28T21:54:49.262Z,25.13
2022-10-28T21:57:15.678Z,25.47
2022-10-28T21:59:42.039Z,18.47
2022-10-28T22:02:08.521Z,25.50
2022-10-28T22:04:35.766Z,25.73
2022-10-28T22:07:02.095Z,21.90
2022-10-28T22:09:30.301Z,26.23
2022-10-28T22:11:57.552Z,29.77
2022-10-28T22:14:23.961Z,23.73
2022-10-28T22:16:50.283Z,20.03
2022-10-28T22:19:16.745Z,22.77
2022-10-28T22:21:43.697Z,22.40
2022-10-28T22:24:10.107Z,20.80
2022-10-28T22:26:36.583Z,20.97
2022-10-28T22:29:02.969Z,20.17
2022-10-28T22:31:31.436Z,32.47
2022-10-28T22:33:57.872Z,24.67
2022-10-28T22:36:25.283Z,30.23
2022-10-28T22:38:51.728Z,26.70
2022-10-28T22:41:19.059Z,26.03
2022-10-28T22:43:46.766Z,20.80
2022-10-28T22:46:15.062Z,22.93
2022-10-28T22:48:41.715Z,26.47
2022-10-28T22:51:09.669Z,24.23
2022-10-28T22:53:36.359Z,24.60
2022-10-28T22:56:02.726Z,25.27
2022-10-28T22:58:29.253Z,26.97
2022-10-28T23:01:08.933Z,24.93
2022-10-28T23:03:36.563Z,30.23
2022-10-28T23:06:02.924Z,20.37
2022-10-28T23:08:29.287Z,22.13
2022-10-28T23:10:55.640Z,23.57
2022-10-28T23:13:22.902Z,30.63
2022-10-28T23:15:49.248Z,29.83
2022-10-28T23:18:15.568Z,22.70
2022-10-28T23:20:41.930Z,24.53
2022-10-28T23:23:08.311Z,25.87
2022-10-28T23:25:34.659Z,24.33
2022-10-28T23:28:04.075Z,24.43
2022-10-28T23:30:30.396Z,30.10
2022-10-28T23:32:57.173Z,28.23
2022-10-28T23:35:23.671Z,26.23
2022-10-28T23:37:49.988Z,25.63
2022-10-28T23:40:16.391Z,24.27
2022-10-28T23:42:42.741Z,19.63
2022-10-28T23:45:09.739Z,18.27
2022-10-28T23:47:36.241Z,22.07
2022-10-28T23:50:02.731Z,17.90
2022-10-28T23:52:29.085Z,24.27
2022-10-28T23:54:55.411Z,18.77
2022-10-28T23:57:21.775Z,30.67
2022-10-28T23:59:48.121Z,25.10
